createdAt,value
2022-07-31T00:00:13.500Z,4.85
2022-07-31T00:03:01.777Z,4.82
2022-07-31T00:05:48.772Z,4.70
2022-07-31T00:08:36.291Z,4.78
2022-07-31T00:11:23.505Z,5.10
2022-07-31T00:14:10.406Z,5.75
2022-07-31T00:16:58.525Z,4.68
2022-07-31T00:19:47.058Z,4.72
2022-07-31T00:22:35.706Z,4.68
2022-07-31T00:25:22.560Z,5.03
2022-07-31T00:28:09.400Z,5.00
2022-07-31T00:30:56.575Z,4.88
2022-07-31T00:33:43.969Z,4.80
2022-07-31T00:36:32.661Z,4.95
2022-07-31T00:39:20.163Z,5.13
2022-07-31T00:42:07.315Z,5.25
2022-07-31T00:44:54.998Z,5.18
2022-07-31T00:47:42.102Z,5.20
2022-07-31T00:50:29.337Z,4.78
2022-07-31T00:53:17.823Z,5.40
2022-07-31T00:56:05.103Z,5.00
2022-07-31T00:58:52.804Z,5.15
2022-07-31T01:01:39.786Z,4.82
2022-07-31T01:04:27.473Z,5.25
2022-07-31T01:07:14.319Z,5.97
2022-07-31T01:10:07.720Z,5.35
2022-07-31T01:12:59.901Z,4.85
2022-07-31T01:15:47.811Z,4.93
2022-07-31T01:18:38.464Z,5.22
2022-07-31T01:21:32.851Z,4.93
2022-07-31T01:24:41.694Z,4.43
2022-07-31T01:27:59.402Z,4.75
2022-07-31T01:31:10.785Z,5.22
2022-07-31T01:34:07.053Z,5.03
2022-07-31T01:39:51.873Z,4.75
2022-07-31T01:45:28.667Z,4.75
2022-07-31T01:48:17.974Z,5.03
2022-07-31T01:51:08.898Z,5.40
2022-07-31T01:53:57.107Z,5.72
2022-07-31T01:56:46.064Z,6.18
2022-07-31T01:59:37.318Z,6.05
2022-07-31T02:02:35.714Z,5.78
2022-07-31T02:05:31.093Z,5.82
2022-07-31T02:08:20.031Z,5.70
2022-07-31T02:11:09.762Z,4.70
2022-07-31T02:13:57.922Z,5.68
2022-07-31T02:16:45.915Z,4.93
2022-07-31T02:19:59.816Z,4.93
2022-07-31T02:22:48.997Z,5.55
2022-07-31T02:25:38.180Z,5.80
2022-07-31T02:28:27.515Z,5.40
2022-07-31T02:31:16.250Z,5.10
2022-07-31T02:34:05.610Z,5.57
2022-07-31T02:36:54.722Z,4.97
2022-07-31T02:39:45.868Z,4.90
2022-07-31T02:42:33.232Z,5.82
2022-07-31T02:45:22.600Z,4.85
2022-07-31T02:48:10.091Z,4.47
2022-07-31T02:51:01.601Z,4.93
2022-07-31T02:53:49.071Z,5.05
2022-07-31T02:56:39.388Z,5.10
2022-07-31T02:59:26.757Z,4.82
2022-07-31T03:02:18.574Z,5.63
2022-07-31T03:05:05.623Z,4.75
2022-07-31T03:07:53.373Z,4.70
2022-07-31T03:10:40.169Z,4.47
2022-07-31T03:13:31.568Z,4.40
2022-07-31T03:16:19.226Z,4.25
2022-07-31T03:19:08.528Z,4.32
2022-07-31T03:21:56.331Z,4.32
2022-07-31T03:24:43.376Z,4.25
2022-07-31T03:27:30.094Z,4.15
2022-07-31T03:30:24.898Z,4.10
2022-07-31T03:33:14.197Z,4.25
2022-07-31T03:36:01.811Z,3.97
2022-07-31T03:38:50.737Z,3.92
2022-07-31T03:41:51.556Z,4.60
2022-07-31T03:44:42.062Z,4.95
2022-07-31T03:47:30.804Z,4.60
2022-07-31T03:50:18.899Z,4.22
2022-07-31T03:53:07.326Z,4.50
2022-07-31T03:56:03.895Z,4.78
2022-07-31T03:58:52.748Z,4.00
2022-07-31T04:01:57.568Z,4.25
2022-07-31T04:04:57.607Z,4.70
2022-07-31T04:07:45.871Z,3.70
2022-07-31T04:10:33.610Z,4.25
2022-07-31T04:13:20.472Z,4.32
2022-07-31T04:16:08.222Z,4.13
2022-07-31T04:18:55.195Z,4.32
2022-07-31T04:21:44.689Z,3.85
2022-07-31T04:24:31.392Z,3.72
2022-07-31T04:27:33.646Z,4.20
2022-07-31T04:30:20.676Z,4.22
2022-07-31T04:33:08.226Z,3.78
2022-07-31T04:35:56.224Z,4.07
2022-07-31T04:38:44.451Z,4.22
2022-07-31T04:41:31.549Z,4.30
2022-07-31T04:44:18.377Z,4.43
2022-07-31T04:47:15.527Z,4.20
2022-07-31T04:50:08.053Z,5.03
2022-07-31T04:52:54.761Z,4.53
2022-07-31T04:56:05.740Z,4.18
2022-07-31T04:58:52.374Z,4.90
2022-07-31T05:01:40.754Z,4.32
2022-07-31T05:04:28.843Z,4.10
2022-07-31T05:07:15.783Z,3.92
2022-07-31T05:10:02.702Z,4.13
2022-07-31T05:12:52.657Z,4.50
2022-07-31T05:15:39.740Z,3.55
2022-07-31T05:18:28.397Z,4.22
2022-07-31T05:21:35.245Z,3.90
2022-07-31T05:24:43.058Z,4.07
2022-07-31T05:27:32.847Z,3.92
2022-07-31T05:30:30.162Z,3.88
2022-07-31T05:33:18.287Z,3.53
2022-07-31T05:36:06.440Z,3.70
2022-07-31T05:38:54.042Z,4.40
2022-07-31T05:42:01.453Z,3.20
2022-07-31T05:44:51.722Z,3.75
2022-07-31T05:47:41.138Z,3.60
2022-07-31T05:50:28.061Z,3.80
2022-07-31T05:53:16.056Z,3.33
2022-07-31T05:56:23.494Z,3.40
2022-07-31T05:59:12.272Z,3.20
2022-07-31T06:02:00.988Z,2.90
2022-07-31T06:05:10.157Z,3.33
2022-07-31T06:07:58.335Z,3.10
2022-07-31T06:10:47.501Z,3.33
2022-07-31T06:13:34.511Z,3.08
2022-07-31T06:16:33.200Z,3.05
2022-07-31T06:19:24.413Z,2.92
2022-07-31T06:22:13.876Z,2.80
2022-07-31T06:25:01.021Z,2.90
2022-07-31T06:27:51.999Z,3.22
2022-07-31T06:30:46.254Z,2.80
2022-07-31T06:33:37.515Z,3.42
2022-07-31T06:36:25.244Z,2.83
2022-07-31T06:39:19.083Z,2.95
2022-07-31T06:42:28.216Z,3.20
2022-07-31T06:45:29.855Z,2.92
2022-07-31T06:48:40.961Z,3.13
2022-07-31T06:51:30.747Z,2.90
2022-07-31T06:54:20.070Z,3.58
2022-07-31T06:57:14.520Z,3.20
2022-07-31T07:00:06.952Z,3.20
2022-07-31T07:03:02.309Z,3.00
2022-07-31T07:05:49.608Z,3.08
2022-07-31T07:08:36.681Z,3.45
2022-07-31T07:11:25.045Z,2.92
2022-07-31T07:14:11.873Z,3.10
2022-07-31T07:16:58.886Z,2.50
2022-07-31T07:19:46.004Z,3.33
2022-07-31T07:22:42.014Z,3.38
2022-07-31T07:25:30.813Z,3.03
2022-07-31T07:28:30.771Z,2.70
2022-07-31T07:31:22.529Z,4.05
2022-07-31T07:34:09.989Z,2.47
2022-07-31T07:36:57.059Z,2.45
2022-07-31T07:39:48.228Z,2.80
2022-07-31T07:42:35.618Z,2.40
2022-07-31T07:45:25.323Z,2.58
2022-07-31T07:48:12.213Z,2.63
2022-07-31T07:51:20.012Z,2.30
2022-07-31T07:54:15.248Z,1.92
2022-07-31T07:57:23.193Z,2.38
2022-07-31T08:00:27.026Z,2.22
2022-07-31T08:03:49.254Z,2.30
2022-07-31T08:06:21.698Z,2.30
2022-07-31T08:09:08.665Z,2.30
2022-07-31T08:12:15.431Z,2.20
2022-07-31T08:15:22.466Z,2.35
2022-07-31T08:18:31.771Z,2.45
2022-07-31T08:21:19.060Z,2.08
2022-07-31T08:24:06.757Z,2.30
2022-07-31T08:27:09.890Z,2.40
2022-07-31T08:29:59.196Z,1.92
2022-07-31T08:32:46.095Z,1.90
2022-07-31T08:35:40.235Z,2.33
2022-07-31T08:38:32.434Z,1.90
2022-07-31T08:41:40.846Z,2.20
2022-07-31T08:44:30.986Z,2.10
2022-07-31T08:47:19.184Z,2.05
2022-07-31T08:50:07.770Z,2.20
2022-07-31T08:53:00.018Z,3.00
2022-07-31T08:56:03.357Z,2.08
2022-07-31T08:58:50.888Z,2.20
2022-07-31T09:01:38.861Z,2.08
2022-07-31T09:04:26.319Z,2.20
2022-07-31T09:07:16.662Z,2.22
2022-07-31T09:10:08.553Z,1.67
2022-07-31T09:12:56.725Z,2.10
2022-07-31T09:15:46.807Z,2.00
2022-07-31T09:18:35.069Z,1.55
2022-07-31T09:21:27.059Z,1.60
2022-07-31T09:24:26.453Z,1.63
2022-07-31T09:27:17.411Z,1.75
2022-07-31T09:30:06.190Z,1.80
2022-07-31T09:33:16.335Z,1.95
2022-07-31T09:36:24.429Z,1.42
2022-07-31T09:39:24.738Z,1.35
2022-07-31T09:55:20.111Z,1.30
2022-07-31T10:11:43.595Z,1.65
2022-07-31T10:14:41.358Z,1.50
2022-07-31T10:17:36.107Z,1.30
2022-07-31T10:20:35.838Z,1.40
2022-07-31T10:23:32.315Z,1.60
2022-07-31T10:26:44.536Z,1.70
2022-07-31T10:29:37.426Z,1.42
2022-07-31T10:32:28.736Z,1.60
2022-07-31T10:35:44.188Z,1.20
2022-07-31T10:39:06.779Z,1.60
2022-07-31T10:42:20.761Z,1.10
2022-07-31T10:53:50.927Z,1.45
2022-07-31T10:56:42.608Z,1.40
2022-07-31T10:59:50.106Z,4.28
2022-07-31T11:03:51.840Z,1.70
2022-07-31T11:10:21.384Z,3.97
2022-07-31T11:13:33.560Z,1.48
2022-07-31T11:43:04.639Z,1.65
2022-07-31T11:45:56.558Z,1.48
2022-07-31T11:48:45.886Z,1.30
